• Join FlightAware (Why Join?)
  • Login
  • US Flag 
01:35PM EDT


 

Airport Tracker/Info


-or-


 

Live Flight TrackerFlight Track Log ✈ JZA8364 ✈ 20-Jun-2013 ✈ CYQU - CYEG

Flight Track Log - Related Links

Times and Time Zones

All times are in EDT time to prevent confusion due to time zone crossing. See the JZA8364 flight status page for this flight to view local times or setup timezone preferences in your user account.

Time Position Orientation Groundspeed Altitude Reporting Facility
EDT Latitude Longitude Course Direction KTS MPH feet Rate Location/Type
12:18PM 55.1333 -118.9167 125° Southeast 120 138 3,300  Level Edmonton Center
12:19PM 55.1167 -118.8333 109° East 150 173 3,700 900 Climbing Edmonton Center
12:20PM 55.0833 -118.7667 131° Southeast 180 207 5,200 1,380 Climbing Edmonton Center
12:21PM 55.0667 -118.7000 114° Southeast 160 184 6,500 1,200 Climbing Edmonton Center
12:22PM 54.9828 -118.3567 125° Southeast  Level FlightAware Approximate
12:22PM 55.0500 -118.6333 114° Southeast 160 184 7,700  Level Edmonton Center
12:23PM 54.9422 -118.2552 125° Southeast  Level FlightAware Approximate
12:23PM 55.0167 -118.5667 131° Southeast 160 184 8,900  Level Edmonton Center
12:24PM 55.0000 -118.5000 114° Southeast 170 196 10,000 1,080 Climbing Edmonton Center
12:25PM 54.9667 -118.4333 131° Southeast 170 196 11,100 960 Climbing Edmonton Center
12:26PM 54.9500 -118.3667 114° Southeast 170 196 12,000 840 Climbing Edmonton Center
12:27PM 54.9167 -118.2833 125° Southeast 180 207 12,800 900 Climbing Edmonton Center
12:28PM 54.8833 -118.1833 120° Southeast 190 219 13,800 900 Climbing Edmonton Center
12:29PM 54.8500 -118.1167 131° Southeast 180 207 14,600 780 Climbing Edmonton Center
12:30PM 54.8333 -118.0500 113° Southeast 190 219 15,400 780 Climbing Edmonton Center
12:31PM 54.8000 -117.9833 131° Southeast 180 207 16,200 720 Climbing Edmonton Center
12:32PM 54.7667 -117.9167 131° Southeast 180 207 16,900 660 Climbing Edmonton Center
12:33PM 54.7500 -117.8500 113° Southeast 180 207 17,600 600 Climbing Edmonton Center
12:34PM 54.7167 -117.7500 120° Southeast 180 207 18,200 600 Climbing Edmonton Center
12:35PM 54.7000 -117.6833 113° Southeast 180 207 18,800 540 Climbing Edmonton Center
12:36PM 54.6667 -117.6167 131° Southeast 180 207 19,300 540 Climbing Edmonton Center
12:37PM 54.6167 -117.5333 136° Southeast 190 219 19,900 600 Climbing Edmonton Center
12:38PM 54.6000 -117.4333 106° East 180 207 20,600 540 Climbing Edmonton Center
12:39PM 54.5667 -117.3667 131° Southeast 180 207 21,000 180 Climbing Edmonton Center
12:40PM 54.5500 -117.3000 113° Southeast 200 230 21,000  Level Edmonton Center
12:41PM 54.5000 -117.2000 131° Southeast 210 242 21,000  Level Edmonton Center
12:42PM 54.4833 -117.1333 113° Southeast 220 253 21,000  Level Edmonton Center
12:43PM 54.4333 -117.0333 131° Southeast 230 265 21,000  Level Edmonton Center
12:44PM 54.4000 -116.9333 120° Southeast 230 265 21,000  Level Edmonton Center
12:45PM 54.3500 -116.8333 131° Southeast 230 265 21,000  Level Edmonton Center
12:46PM 54.3333 -116.7333 106° East 240 276 21,000  Level Edmonton Center
12:47PM 54.2833 -116.6667 142° Southeast 240 276 21,000  Level Edmonton Center
12:48PM 54.2500 -116.5667 120° Southeast 240 276 21,000  Level Edmonton Center
12:49PM 54.2167 -116.4667 120° Southeast 240 276 21,000  Level Edmonton Center
12:50PM 54.1833 -116.3667 120° Southeast 240 276 21,000  Level Edmonton Center
12:51PM 54.1333 -116.2667 130° Southeast 240 276 21,000  Level Edmonton Center
12:52PM 54.1167 -116.1833 109° East 240 276 21,000  Level Edmonton Center
12:53PM 54.0667 -116.0833 130° Southeast 240 276 21,000 -240 Level Edmonton Center
12:54PM 54.0333 -115.9833 120° Southeast 240 276 20,600 -720 Descending Edmonton Center
12:55PM 53.9833 -115.8833 130° Southeast 250 288 19,600 -840 Descending Edmonton Center
12:56PM 53.9500 -115.7833 119° Southeast 250 288 19,000 -300 Descending Edmonton Center
12:57PM 53.9000 -115.6833 130° Southeast 250 288 19,000  Level Edmonton Center
12:58PM 53.8833 -115.5833 106° East 240 276 19,000 -120 Level Edmonton Center
12:59PM 53.8333 -115.5167 142° Southeast 240 276 18,800 -360 Descending Edmonton Center
01:00PM 53.8000 -115.4000 116° Southeast 250 288 18,300 -540 Descending Edmonton Center
01:01PM 53.7500 -115.3167 135° Southeast 250 288 17,800 -540 Descending Edmonton Center
01:02PM 53.7000 -115.2333 135° Southeast 260 299 17,300 -540 Descending Edmonton Center
01:03PM 53.6667 -115.1000 113° Southeast 260 299 16,800 -540 Descending Edmonton Center
01:04PM 53.6167 -115.0000 130° Southeast 260 299 16,300 -540 Descending Edmonton Center
01:05PM 53.5833 -114.9000 119° Southeast 260 299 15,800 -780 Descending Edmonton Center
01:06PM 53.5500 -114.7833 116° Southeast 260 299 14,800 -1,140 Descending Edmonton Center
01:07PM 53.5500 -114.6667 90° East 250 288 13,600 -1,080 Descending Edmonton Center
01:08PM 53.5167 -114.5833 124° Southeast 230 265 12,700 -960 Descending Edmonton Center
01:09PM 53.5167 -114.4667 90° East 230 265 11,700 -1,020 Descending Edmonton Center
01:10PM 53.4833 -114.3667 119° Southeast 230 265 10,700 -960 Descending Edmonton Center
01:11PM 53.4833 -114.2833 90° East 220 253 9,800 -900 Descending Edmonton Center
01:12PM 53.4500 -114.1667 116° Southeast 220 253 8,900 -900 Descending Edmonton Center
01:13PM 53.4500 -114.0667 90° East 220 253 8,000 -960 Descending Edmonton Center
01:14PM 53.4167 -113.9500 116° Southeast 210 242 7,000 -900 Descending Edmonton Center
01:15PM 53.4167 -113.9000 90° East 190 219 6,200 -780 Descending Edmonton Center
01:16PM 53.4000 -113.8000 106° East 160 184 5,500 -840 Descending Edmonton Center
01:17PM 53.3500 -113.7667 158° South 170 196 4,600 -900 Descending Edmonton Center